sensor_id;sensor_type;location;lat;lon;timestamp;P1;durP1;ratioP1;P2;durP2;ratioP2
826;SDS011;395;48.132;11.608;2022-09-27T00:01:37;3.00;;;1.83;;
826;SDS011;395;48.132;11.608;2022-09-27T00:04:03;2.03;;;1.60;;
826;SDS011;395;48.132;11.608;2022-09-27T00:06:29;2.10;;;1.30;;
826;SDS011;395;48.132;11.608;2022-09-27T00:08:56;1.83;;;1.10;;
826;SDS011;395;48.132;11.608;2022-09-27T00:11:27;2.03;;;1.83;;
826;SDS011;395;48.132;11.608;2022-09-27T00:14:00;2.10;;;1.90;;
826;SDS011;395;48.132;11.608;2022-09-27T00:16:27;1.50;;;1.40;;
826;SDS011;395;48.132;11.608;2022-09-27T00:18:59;1.73;;;1.57;;
826;SDS011;395;48.132;11.608;2022-09-27T00:21:26;1.30;;;1.20;;
826;SDS011;395;48.132;11.608;2022-09-27T00:23:52;4.30;;;1.87;;
826;SDS011;395;48.132;11.608;2022-09-27T00:26:18;1.80;;;1.50;;
826;SDS011;395;48.132;11.608;2022-09-27T00:28:43;1.37;;;1.27;;
826;SDS011;395;48.132;11.608;2022-09-27T00:31:13;1.83;;;1.40;;
826;SDS011;395;48.132;11.608;2022-09-27T00:33:45;1.87;;;1.67;;
826;SDS011;395;48.132;11.608;2022-09-27T00:36:12;2.00;;;1.47;;
826;SDS011;395;48.132;11.608;2022-09-27T00:38:39;2.57;;;1.73;;
826;SDS011;395;48.132;11.608;2022-09-27T00:41:05;1.30;;;1.20;;
826;SDS011;395;48.132;11.608;2022-09-27T00:46:12;1.70;;;1.53;;
826;SDS011;395;48.132;11.608;2022-09-27T00:48:42;1.70;;;1.20;;
826;SDS011;395;48.132;11.608;2022-09-27T00:51:08;1.40;;;1.30;;
826;SDS011;395;48.132;11.608;2022-09-27T00:53:44;1.90;;;1.40;;
826;SDS011;395;48.132;11.608;2022-09-27T00:56:17;2.67;;;1.60;;
826;SDS011;395;48.132;11.608;2022-09-27T00:58:49;1.83;;;1.37;;
826;SDS011;395;48.132;11.608;2022-09-27T01:01:20;2.60;;;1.70;;
826;SDS011;395;48.132;11.608;2022-09-27T01:03:59;1.97;;;1.77;;
826;SDS011;395;48.132;11.608;2022-09-27T01:06:26;4.93;;;1.80;;
826;SDS011;395;48.132;11.608;2022-09-27T01:08:51;2.17;;;1.90;;
826;SDS011;395;48.132;11.608;2022-09-27T01:14:03;4.33;;;1.70;;
826;SDS011;395;48.132;11.608;2022-09-27T01:22:31;2.43;;;1.50;;
826;SDS011;395;48.132;11.608;2022-09-27T01:28:11;2.30;;;1.53;;
826;SDS011;395;48.132;11.608;2022-09-27T01:31:03;3.30;;;1.80;;
826;SDS011;395;48.132;11.608;2022-09-27T01:33:44;1.90;;;1.70;;
826;SDS011;395;48.132;11.608;2022-09-27T01:45:00;2.00;;;1.53;;
826;SDS011;395;48.132;11.608;2022-09-27T01:48:41;2.10;;;1.67;;
826;SDS011;395;48.132;11.608;2022-09-27T01:50:46;2.60;;;2.27;;
826;SDS011;395;48.132;11.608;2022-09-27T01:53:18;2.20;;;2.00;;
826;SDS011;395;48.132;11.608;2022-09-27T01:55:51;3.07;;;2.30;;
826;SDS011;395;48.132;11.608;2022-09-27T02:00:48;2.47;;;2.27;;
826;SDS011;395;48.132;11.608;2022-09-27T02:03:24;2.53;;;2.23;;
826;SDS011;395;48.132;11.608;2022-09-27T02:05:57;2.47;;;2.27;;
826;SDS011;395;48.132;11.608;2022-09-27T02:10:51;2.20;;;2.00;;
826;SDS011;395;48.132;11.608;2022-09-27T02:13:26;2.30;;;2.10;;
826;SDS011;395;48.132;11.608;2022-09-27T02:19:09;2.30;;;2.10;;
826;SDS011;395;48.132;11.608;2022-09-27T02:21:59;2.93;;;2.43;;
826;SDS011;395;48.132;11.608;2022-09-27T02:24:37;2.20;;;2.00;;
826;SDS011;395;48.132;11.608;2022-09-27T02:27:18;3.63;;;2.40;;
826;SDS011;395;48.132;11.608;2022-09-27T02:29:59;2.37;;;2.17;;
826;SDS011;395;48.132;11.608;2022-09-27T02:32:30;2.27;;;2.10;;
826;SDS011;395;48.132;11.608;2022-09-27T02:34:57;2.37;;;2.10;;
826;SDS011;395;48.132;11.608;2022-09-27T02:37:28;2.20;;;2.00;;
826;SDS011;395;48.132;11.608;2022-09-27T02:39:54;4.00;;;2.60;;
826;SDS011;395;48.132;11.608;2022-09-27T02:42:21;2.77;;;2.33;;
826;SDS011;395;48.132;11.608;2022-09-27T02:44:48;2.07;;;1.70;;
826;SDS011;395;48.132;11.608;2022-09-27T02:47:56;3.20;;;2.60;;
826;SDS011;395;48.132;11.608;2022-09-27T02:53:03;2.30;;;2.10;;
826;SDS011;395;48.132;11.608;2022-09-27T02:59:05;2.43;;;2.23;;
826;SDS011;395;48.132;11.608;2022-09-27T03:01:37;2.30;;;2.10;;
826;SDS011;395;48.132;11.608;2022-09-27T03:04:22;2.40;;;2.20;;
826;SDS011;395;48.132;11.608;2022-09-27T03:07:03;2.87;;;2.13;;
826;SDS011;395;48.132;11.608;2022-09-27T03:09:39;2.23;;;2.03;;
826;SDS011;395;48.132;11.608;2022-09-27T03:12:07;2.83;;;2.10;;
826;SDS011;395;48.132;11.608;2022-09-27T03:14:33;2.40;;;2.10;;
826;SDS011;395;48.132;11.608;2022-09-27T03:16:59;2.50;;;2.30;;
826;SDS011;395;48.132;11.608;2022-09-27T03:19:24;3.17;;;2.23;;
826;SDS011;395;48.132;11.608;2022-09-27T03:21:50;2.97;;;1.97;;
826;SDS011;395;48.132;11.608;2022-09-27T03:24:15;5.97;;;2.43;;
826;SDS011;395;48.132;11.608;2022-09-27T03:26:41;5.23;;;2.80;;
826;SDS011;395;48.132;11.608;2022-09-27T03:29:07;2.90;;;2.27;;
826;SDS011;395;48.132;11.608;2022-09-27T03:31:32;3.00;;;2.47;;
826;SDS011;395;48.132;11.608;2022-09-27T03:33:58;2.33;;;2.13;;
826;SDS011;395;48.132;11.608;2022-09-27T03:36:24;3.03;;;2.10;;
826;SDS011;395;48.132;11.608;2022-09-27T03:38:49;2.53;;;2.10;;
826;SDS011;395;48.132;11.608;2022-09-27T03:41:15;4.07;;;2.63;;
826;SDS011;395;48.132;11.608;2022-09-27T03:43:41;2.70;;;2.50;;
826;SDS011;395;48.132;11.608;2022-09-27T03:46:06;2.20;;;2.00;;
826;SDS011;395;48.132;11.608;2022-09-27T03:48:32;2.23;;;2.03;;
826;SDS011;395;48.132;11.608;2022-09-27T03:50:57;2.50;;;2.30;;
826;SDS011;395;48.132;11.608;2022-09-27T03:53:23;3.30;;;3.00;;
826;SDS011;395;48.132;11.608;2022-09-27T03:55:49;2.93;;;2.60;;
826;SDS011;395;48.132;11.608;2022-09-27T03:58:14;2.70;;;2.50;;
826;SDS011;395;48.132;11.608;2022-09-27T04:00:40;3.90;;;2.90;;
826;SDS011;395;48.132;11.608;2022-09-27T04:03:08;3.07;;;2.60;;
826;SDS011;395;48.132;11.608;2022-09-27T04:05:33;3.37;;;2.50;;
826;SDS011;395;48.132;11.608;2022-09-27T04:07:59;3.40;;;2.90;;
826;SDS011;395;48.132;11.608;2022-09-27T04:10:25;2.63;;;2.23;;
826;SDS011;395;48.132;11.608;2022-09-27T04:12:50;2.87;;;2.40;;
826;SDS011;395;48.132;11.608;2022-09-27T04:15:16;3.70;;;2.27;;
826;SDS011;395;48.132;11.608;2022-09-27T04:17:42;3.23;;;2.37;;
826;SDS011;395;48.132;11.608;2022-09-27T04:20:09;2.80;;;2.20;;
826;SDS011;395;48.132;11.608;2022-09-27T04:22:38;3.60;;;2.80;;
826;SDS011;395;48.132;11.608;2022-09-27T04:25:05;3.10;;;2.80;;
826;SDS011;395;48.132;11.608;2022-09-27T04:27:32;2.53;;;2.33;;
826;SDS011;395;48.132;11.608;2022-09-27T04:29:57;2.57;;;2.37;;
826;SDS011;395;48.132;11.608;2022-09-27T04:32:23;4.07;;;2.20;;
826;SDS011;395;48.132;11.608;2022-09-27T04:34:49;3.20;;;2.50;;
826;SDS011;395;48.132;11.608;2022-09-27T04:37:33;3.00;;;2.50;;
826;SDS011;395;48.132;11.608;2022-09-27T04:40:00;2.13;;;2.03;;
826;SDS011;395;48.132;11.608;2022-09-27T04:42:27;2.70;;;2.33;;
826;SDS011;395;48.132;11.608;2022-09-27T04:44:53;2.40;;;2.20;;
826;SDS011;395;48.132;11.608;2022-09-27T04:47:18;2.73;;;2.53;;
826;SDS011;395;48.132;11.608;2022-09-27T04:49:45;3.00;;;2.63;;
826;SDS011;395;48.132;11.608;2022-09-27T04:52:11;3.17;;;2.80;;
826;SDS011;395;48.132;11.608;2022-09-27T04:54:39;3.00;;;2.70;;
826;SDS011;395;48.132;11.608;2022-09-27T04:57:05;2.67;;;2.47;;
826;SDS011;395;48.132;11.608;2022-09-27T04:59:31;2.50;;;2.30;;
826;SDS011;395;48.132;11.608;2022-09-27T05:01:57;2.60;;;2.40;;
826;SDS011;395;48.132;11.608;2022-09-27T05:04:24;3.70;;;3.03;;
826;SDS011;395;48.132;11.608;2022-09-27T05:06:50;3.67;;;3.17;;
826;SDS011;395;48.132;11.608;2022-09-27T05:09:16;3.23;;;2.93;;
826;SDS011;395;48.132;11.608;2022-09-27T05:11:42;2.80;;;2.53;;
826;SDS011;395;48.132;11.608;2022-09-27T05:14:07;2.17;;;1.97;;
826;SDS011;395;48.132;11.608;2022-09-27T05:16:33;2.53;;;2.30;;
826;SDS011;395;48.132;11.608;2022-09-27T05:19:00;5.50;;;2.63;;
826;SDS011;395;48.132;11.608;2022-09-27T05:21:26;6.43;;;2.40;;
826;SDS011;395;48.132;11.608;2022-09-27T05:23:52;2.77;;;2.00;;
826;SDS011;395;48.132;11.608;2022-09-27T05:26:18;4.77;;;3.00;;
826;SDS011;395;48.132;11.608;2022-09-27T05:28:44;1.80;;;1.70;;
826;SDS011;395;48.132;11.608;2022-09-27T05:31:11;2.07;;;1.70;;
826;SDS011;395;48.132;11.608;2022-09-27T05:33:38;1.70;;;1.43;;
826;SDS011;395;48.132;11.608;2022-09-27T05:36:05;1.80;;;1.30;;
826;SDS011;395;48.132;11.608;2022-09-27T05:38:31;1.90;;;1.30;;
826;SDS011;395;48.132;11.608;2022-09-27T05:40:57;1.83;;;1.30;;
826;SDS011;395;48.132;11.608;2022-09-27T05:43:22;2.60;;;1.10;;
826;SDS011;395;48.132;11.608;2022-09-27T05:45:49;1.20;;;1.10;;
826;SDS011;395;48.132;11.608;2022-09-27T05:48:16;1.20;;;1.10;;
826;SDS011;395;48.132;11.608;2022-09-27T05:50:43;1.10;;;1.00;;
826;SDS011;395;48.132;11.608;2022-09-27T05:53:10;1.13;;;1.03;;
826;SDS011;395;48.132;11.608;2022-09-27T05:55:37;1.20;;;0.90;;
826;SDS011;395;48.132;11.608;2022-09-27T05:58:04;1.40;;;1.20;;
826;SDS011;395;48.132;11.608;2022-09-27T06:00:31;3.97;;;1.37;;
826;SDS011;395;48.132;11.608;2022-09-27T06:02:59;3.23;;;1.07;;
826;SDS011;395;48.132;11.608;2022-09-27T06:05:27;1.60;;;1.20;;
826;SDS011;395;48.132;11.608;2022-09-27T06:07:58;2.50;;;1.27;;
826;SDS011;395;48.132;11.608;2022-09-27T06:10:29;1.00;;;0.90;;
826;SDS011;395;48.132;11.608;2022-09-27T06:13:02;1.20;;;1.00;;
826;SDS011;395;48.132;11.608;2022-09-27T06:15:39;3.43;;;1.30;;
826;SDS011;395;48.132;11.608;2022-09-27T06:18:08;1.67;;;1.07;;
826;SDS011;395;48.132;11.608;2022-09-27T06:20:40;1.17;;;1.07;;
826;SDS011;395;48.132;11.608;2022-09-27T06:23:11;1.70;;;1.10;;
826;SDS011;395;48.132;11.608;2022-09-27T06:25:38;1.03;;;0.80;;
826;SDS011;395;48.132;11.608;2022-09-27T06:28:04;3.70;;;0.90;;
826;SDS011;395;48.132;11.608;2022-09-27T06:30:30;1.10;;;1.00;;
826;SDS011;395;48.132;11.608;2022-09-27T06:35:26;1.30;;;0.83;;
826;SDS011;395;48.132;11.608;2022-09-27T06:37:52;1.50;;;0.90;;
826;SDS011;395;48.132;11.608;2022-09-27T06:40:19;1.23;;;0.97;;
826;SDS011;395;48.132;11.608;2022-09-27T06:42:46;0.70;;;0.50;;
826;SDS011;395;48.132;11.608;2022-09-27T06:45:14;1.57;;;0.80;;
826;SDS011;395;48.132;11.608;2022-09-27T06:47:40;1.50;;;0.80;;
826;SDS011;395;48.132;11.608;2022-09-27T06:50:06;1.00;;;0.70;;
826;SDS011;395;48.132;11.608;2022-09-27T06:52:32;1.50;;;0.90;;
826;SDS011;395;48.132;11.608;2022-09-27T06:54:59;0.90;;;0.60;;
826;SDS011;395;48.132;11.608;2022-09-27T06:57:26;1.50;;;0.83;;
826;SDS011;395;48.132;11.608;2022-09-27T07:00:10;2.43;;;0.80;;
826;SDS011;395;48.132;11.608;2022-09-27T07:02:54;3.30;;;0.80;;
826;SDS011;395;48.132;11.608;2022-09-27T07:05:25;1.60;;;1.27;;
826;SDS011;395;48.132;11.608;2022-09-27T07:07:55;0.80;;;0.70;;
826;SDS011;395;48.132;11.608;2022-09-27T07:10:25;1.73;;;0.77;;
826;SDS011;395;48.132;11.608;2022-09-27T07:12:53;6.37;;;1.20;;
826;SDS011;395;48.132;11.608;2022-09-27T07:15:19;1.23;;;1.00;;
826;SDS011;395;48.132;11.608;2022-09-27T07:17:54;1.63;;;1.07;;
826;SDS011;395;48.132;11.608;2022-09-27T07:20:22;3.07;;;1.20;;
826;SDS011;395;48.132;11.608;2022-09-27T07:22:48;2.10;;;1.00;;
826;SDS011;395;48.132;11.608;2022-09-27T07:25:13;1.90;;;1.13;;
826;SDS011;395;48.132;11.608;2022-09-27T07:27:39;3.07;;;1.30;;
826;SDS011;395;48.132;11.608;2022-09-27T07:30:06;2.70;;;1.13;;
826;SDS011;395;48.132;11.608;2022-09-27T07:32:32;1.40;;;0.90;;
826;SDS011;395;48.132;11.608;2022-09-27T07:35:01;1.57;;;1.10;;
826;SDS011;395;48.132;11.608;2022-09-27T07:37:30;4.07;;;1.20;;
826;SDS011;395;48.132;11.608;2022-09-27T07:40:00;2.60;;;1.20;;
826;SDS011;395;48.132;11.608;2022-09-27T07:42:26;2.10;;;0.80;;
826;SDS011;395;48.132;11.608;2022-09-27T07:44:56;0.97;;;0.87;;
826;SDS011;395;48.132;11.608;2022-09-27T07:47:22;0.70;;;0.70;;
826;SDS011;395;48.132;11.608;2022-09-27T07:49:51;0.70;;;0.70;;
826;SDS011;395;48.132;11.608;2022-09-27T07:52:17;3.20;;;1.40;;
826;SDS011;395;48.132;11.608;2022-09-27T07:54:44;4.60;;;0.73;;
826;SDS011;395;48.132;11.608;2022-09-27T07:57:10;1.83;;;1.40;;
826;SDS011;395;48.132;11.608;2022-09-27T07:59:36;2.90;;;1.00;;
826;SDS011;395;48.132;11.608;2022-09-27T08:02:01;0.87;;;0.60;;
826;SDS011;395;48.132;11.608;2022-09-27T08:04:27;3.70;;;0.80;;
826;SDS011;395;48.132;11.608;2022-09-27T08:06:53;1.43;;;1.00;;
826;SDS011;395;48.132;11.608;2022-09-27T08:09:19;1.33;;;0.63;;
826;SDS011;395;48.132;11.608;2022-09-27T08:11:45;1.50;;;0.60;;
826;SDS011;395;48.132;11.608;2022-09-27T08:14:10;1.10;;;0.67;;
826;SDS011;395;48.132;11.608;2022-09-27T08:16:38;0.70;;;0.40;;
826;SDS011;395;48.132;11.608;2022-09-27T08:19:05;1.33;;;0.40;;
826;SDS011;395;48.132;11.608;2022-09-27T08:21:31;1.33;;;0.30;;
826;SDS011;395;48.132;11.608;2022-09-27T08:23:57;1.53;;;0.40;;
826;SDS011;395;48.132;11.608;2022-09-27T08:26:23;0.40;;;0.20;;
826;SDS011;395;48.132;11.608;2022-09-27T08:28:51;0.80;;;0.40;;
826;SDS011;395;48.132;11.608;2022-09-27T08:31:17;0.40;;;0.40;;
826;SDS011;395;48.132;11.608;2022-09-27T08:33:43;1.27;;;0.50;;
826;SDS011;395;48.132;11.608;2022-09-27T08:36:14;3.67;;;0.60;;
826;SDS011;395;48.132;11.608;2022-09-27T08:38:40;0.90;;;0.70;;
826;SDS011;395;48.132;11.608;2022-09-27T08:41:07;1.83;;;0.73;;
826;SDS011;395;48.132;11.608;2022-09-27T08:46:43;1.47;;;0.53;;
826;SDS011;395;48.132;11.608;2022-09-27T08:49:31;1.40;;;0.50;;
826;SDS011;395;48.132;11.608;2022-09-27T08:52:05;2.10;;;0.60;;
826;SDS011;395;48.132;11.608;2022-09-27T08:54:38;0.80;;;0.67;;
826;SDS011;395;48.132;11.608;2022-09-27T08:57:13;0.67;;;0.63;;
826;SDS011;395;48.132;11.608;2022-09-27T08:59:45;1.60;;;0.53;;
826;SDS011;395;48.132;11.608;2022-09-27T09:02:18;1.13;;;0.30;;
826;SDS011;395;48.132;11.608;2022-09-27T09:04:50;1.23;;;0.50;;
826;SDS011;395;48.132;11.608;2022-09-27T09:13:12;2.23;;;0.60;;
826;SDS011;395;48.132;11.608;2022-09-27T09:15:58;0.50;;;0.50;;
826;SDS011;395;48.132;11.608;2022-09-27T09:21:26;1.90;;;0.40;;
826;SDS011;395;48.132;11.608;2022-09-27T09:35:06;0.73;;;0.50;;
826;SDS011;395;48.132;11.608;2022-09-27T09:37:56;0.70;;;0.53;;
826;SDS011;395;48.132;11.608;2022-09-27T09:45:38;3.77;;;0.80;;
826;SDS011;395;48.132;11.608;2022-09-27T09:50:54;1.23;;;0.67;;
826;SDS011;395;48.132;11.608;2022-09-27T09:53:48;1.83;;;0.60;;
826;SDS011;395;48.132;11.608;2022-09-27T09:56:51;1.17;;;0.60;;
826;SDS011;395;48.132;11.608;2022-09-27T10:02:48;0.50;;;0.50;;
826;SDS011;395;48.132;11.608;2022-09-27T10:04:59;0.90;;;0.33;;
826;SDS011;395;48.132;11.608;2022-09-27T10:07:26;0.97;;;0.60;;
826;SDS011;395;48.132;11.608;2022-09-27T10:09:53;1.00;;;0.70;;
826;SDS011;395;48.132;11.608;2022-09-27T10:12:23;0.63;;;0.60;;
826;SDS011;395;48.132;11.608;2022-09-27T10:14:49;0.50;;;0.50;;
826;SDS011;395;48.132;11.608;2022-09-27T10:17:18;2.83;;;0.50;;
826;SDS011;395;48.132;11.608;2022-09-27T10:19:47;5.43;;;4.93;;
826;SDS011;395;48.132;11.608;2022-09-27T10:22:24;11.60;;;10.70;;
826;SDS011;395;48.132;11.608;2022-09-27T10:24:57;1.23;;;0.77;;
826;SDS011;395;48.132;11.608;2022-09-27T10:27:27;1.17;;;0.60;;
826;SDS011;395;48.132;11.608;2022-09-27T10:30:02;0.93;;;0.60;;
826;SDS011;395;48.132;11.608;2022-09-27T10:32:32;0.63;;;0.50;;
826;SDS011;395;48.132;11.608;2022-09-27T10:40:51;0.77;;;0.77;;
826;SDS011;395;48.132;11.608;2022-09-27T10:48:29;0.80;;;0.70;;
826;SDS011;395;48.132;11.608;2022-09-27T10:50:56;1.70;;;0.80;;
826;SDS011;395;48.132;11.608;2022-09-27T10:53:26;1.10;;;0.70;;
826;SDS011;395;48.132;11.608;2022-09-27T10:55:54;0.57;;;0.50;;
826;SDS011;395;48.132;11.608;2022-09-27T10:58:30;1.57;;;0.70;;
826;SDS011;395;48.132;11.608;2022-09-27T11:00:59;0.67;;;0.60;;
826;SDS011;395;48.132;11.608;2022-09-27T11:03:37;1.10;;;1.00;;
826;SDS011;395;48.132;11.608;2022-09-27T11:08:47;2.00;;;1.17;;
826;SDS011;395;48.132;11.608;2022-09-27T11:13:40;1.30;;;1.13;;
826;SDS011;395;48.132;11.608;2022-09-27T11:16:24;1.77;;;1.13;;
826;SDS011;395;48.132;11.608;2022-09-27T11:30:21;0.80;;;0.80;;
826;SDS011;395;48.132;11.608;2022-09-27T11:38:31;1.10;;;0.70;;
826;SDS011;395;48.132;11.608;2022-09-27T12:02:38;0.83;;;0.83;;
826;SDS011;395;48.132;11.608;2022-09-27T12:10:52;2.37;;;0.47;;
826;SDS011;395;48.132;11.608;2022-09-27T12:13:30;0.70;;;0.50;;
826;SDS011;395;48.132;11.608;2022-09-27T12:16:00;1.03;;;0.50;;
826;SDS011;395;48.132;11.608;2022-09-27T12:18:29;0.70;;;0.50;;
826;SDS011;395;48.132;11.608;2022-09-27T12:21:05;1.10;;;0.87;;
826;SDS011;395;48.132;11.608;2022-09-27T12:23:40;0.63;;;0.50;;
826;SDS011;395;48.132;11.608;2022-09-27T12:26:14;1.10;;;0.80;;
826;SDS011;395;48.132;11.608;2022-09-27T12:28:52;2.07;;;0.47;;
826;SDS011;395;48.132;11.608;2022-09-27T12:31:24;0.67;;;0.40;;
826;SDS011;395;48.132;11.608;2022-09-27T12:34:05;1.00;;;0.67;;
826;SDS011;395;48.132;11.608;2022-09-27T12:36:42;1.70;;;0.77;;
826;SDS011;395;48.132;11.608;2022-09-27T12:42:18;1.43;;;1.10;;
826;SDS011;395;48.132;11.608;2022-09-27T12:44:46;1.37;;;1.20;;
826;SDS011;395;48.132;11.608;2022-09-27T12:47:19;1.43;;;0.93;;
826;SDS011;395;48.132;11.608;2022-09-27T12:52:42;2.10;;;1.00;;
826;SDS011;395;48.132;11.608;2022-09-27T12:55:30;1.57;;;0.97;;
826;SDS011;395;48.132;11.608;2022-09-27T12:58:27;1.37;;;0.90;;
826;SDS011;395;48.132;11.608;2022-09-27T13:01:15;2.10;;;1.40;;
826;SDS011;395;48.132;11.608;2022-09-27T13:06:57;2.00;;;1.30;;
826;SDS011;395;48.132;11.608;2022-09-27T13:12:32;1.23;;;0.97;;
826;SDS011;395;48.132;11.608;2022-09-27T13:14:59;0.80;;;0.80;;
826;SDS011;395;48.132;11.608;2022-09-27T13:17:46;1.93;;;1.00;;
826;SDS011;395;48.132;11.608;2022-09-27T13:23:02;0.80;;;0.50;;
826;SDS011;395;48.132;11.608;2022-09-27T13:30:56;1.50;;;0.60;;
826;SDS011;395;48.132;11.608;2022-09-27T13:33:38;1.33;;;0.80;;
826;SDS011;395;48.132;11.608;2022-09-27T13:36:17;1.67;;;0.50;;
826;SDS011;395;48.132;11.608;2022-09-27T13:38:54;1.23;;;0.63;;
826;SDS011;395;48.132;11.608;2022-09-27T13:41:41;4.47;;;1.23;;
826;SDS011;395;48.132;11.608;2022-09-27T13:56:01;1.10;;;0.60;;
826;SDS011;395;48.132;11.608;2022-09-27T14:04:02;2.30;;;1.00;;
826;SDS011;395;48.132;11.608;2022-09-27T14:06:49;2.57;;;1.03;;
826;SDS011;395;48.132;11.608;2022-09-27T14:09:24;1.37;;;0.80;;
826;SDS011;395;48.132;11.608;2022-09-27T14:11:52;1.57;;;0.97;;
826;SDS011;395;48.132;11.608;2022-09-27T14:14:23;2.10;;;0.80;;
826;SDS011;395;48.132;11.608;2022-09-27T14:16:51;2.20;;;0.90;;
826;SDS011;395;48.132;11.608;2022-09-27T14:19:18;2.27;;;1.00;;
826;SDS011;395;48.132;11.608;2022-09-27T14:21:51;3.83;;;0.87;;
826;SDS011;395;48.132;11.608;2022-09-27T14:29:52;1.37;;;0.90;;
826;SDS011;395;48.132;11.608;2022-09-27T14:32:30;2.93;;;0.97;;
826;SDS011;395;48.132;11.608;2022-09-27T14:35:10;0.73;;;0.40;;
826;SDS011;395;48.132;11.608;2022-09-27T14:38:00;0.77;;;0.53;;
826;SDS011;395;48.132;11.608;2022-09-27T14:40:27;1.53;;;0.50;;
826;SDS011;395;48.132;11.608;2022-09-27T14:42:54;0.60;;;0.50;;
826;SDS011;395;48.132;11.608;2022-09-27T14:45:37;1.17;;;0.60;;
826;SDS011;395;48.132;11.608;2022-09-27T14:48:17;1.07;;;0.60;;
826;SDS011;395;48.132;11.608;2022-09-27T14:50:52;1.00;;;0.40;;
826;SDS011;395;48.132;11.608;2022-09-27T14:53:49;2.33;;;0.53;;
826;SDS011;395;48.132;11.608;2022-09-27T14:56:21;2.83;;;0.77;;
826;SDS011;395;48.132;11.608;2022-09-27T14:58:54;0.53;;;0.40;;
826;SDS011;395;48.132;11.608;2022-09-27T15:01:26;1.23;;;0.53;;
826;SDS011;395;48.132;11.608;2022-09-27T15:03:52;1.37;;;0.43;;
826;SDS011;395;48.132;11.608;2022-09-27T15:06:20;1.33;;;0.60;;
826;SDS011;395;48.132;11.608;2022-09-27T15:08:46;1.10;;;0.60;;
826;SDS011;395;48.132;11.608;2022-09-27T15:11:13;1.00;;;0.90;;
826;SDS011;395;48.132;11.608;2022-09-27T15:13:40;2.20;;;0.60;;
826;SDS011;395;48.132;11.608;2022-09-27T15:16:07;0.87;;;0.70;;
826;SDS011;395;48.132;11.608;2022-09-27T15:18:41;0.73;;;0.73;;
826;SDS011;395;48.132;11.608;2022-09-27T15:21:09;1.17;;;0.70;;
826;SDS011;395;48.132;11.608;2022-09-27T15:23:37;1.37;;;0.97;;
826;SDS011;395;48.132;11.608;2022-09-27T15:28:44;1.77;;;1.20;;
826;SDS011;395;48.132;11.608;2022-09-27T15:31:13;1.80;;;0.70;;
826;SDS011;395;48.132;11.608;2022-09-27T15:33:39;1.73;;;0.73;;
826;SDS011;395;48.132;11.608;2022-09-27T15:36:07;1.83;;;1.03;;
826;SDS011;395;48.132;11.608;2022-09-27T15:41:14;2.33;;;1.80;;
826;SDS011;395;48.132;11.608;2022-09-27T15:43:44;1.67;;;1.30;;
826;SDS011;395;48.132;11.608;2022-09-27T15:51:43;1.67;;;1.27;;
826;SDS011;395;48.132;11.608;2022-09-27T15:54:09;1.67;;;1.20;;
826;SDS011;395;48.132;11.608;2022-09-27T15:56:36;1.40;;;1.30;;
826;SDS011;395;48.132;11.608;2022-09-27T15:59:03;1.90;;;1.17;;
826;SDS011;395;48.132;11.608;2022-09-27T16:01:31;1.77;;;1.40;;
826;SDS011;395;48.132;11.608;2022-09-27T16:03:57;1.30;;;0.90;;
826;SDS011;395;48.132;11.608;2022-09-27T16:06:23;1.07;;;1.00;;
826;SDS011;395;48.132;11.608;2022-09-27T16:08:51;2.10;;;1.10;;
826;SDS011;395;48.132;11.608;2022-09-27T16:11:17;1.00;;;0.80;;
826;SDS011;395;48.132;11.608;2022-09-27T16:13:43;1.30;;;0.70;;
826;SDS011;395;48.132;11.608;2022-09-27T16:16:13;1.13;;;0.93;;
826;SDS011;395;48.132;11.608;2022-09-27T16:18:41;1.30;;;1.00;;
826;SDS011;395;48.132;11.608;2022-09-27T16:21:08;0.97;;;0.80;;
826;SDS011;395;48.132;11.608;2022-09-27T16:23:34;1.57;;;1.20;;
826;SDS011;395;48.132;11.608;2022-09-27T16:26:00;2.53;;;1.00;;
826;SDS011;395;48.132;11.608;2022-09-27T16:28:25;1.70;;;1.07;;
826;SDS011;395;48.132;11.608;2022-09-27T16:30:51;1.57;;;1.00;;
826;SDS011;395;48.132;11.608;2022-09-27T16:33:16;1.20;;;1.10;;
826;SDS011;395;48.132;11.608;2022-09-27T16:35:42;2.07;;;1.40;;
826;SDS011;395;48.132;11.608;2022-09-27T16:38:08;2.03;;;1.50;;
826;SDS011;395;48.132;11.608;2022-09-27T16:40:35;3.60;;;2.57;;
826;SDS011;395;48.132;11.608;2022-09-27T16:43:01;1.73;;;1.40;;
826;SDS011;395;48.132;11.608;2022-09-27T16:45:31;1.27;;;1.17;;
826;SDS011;395;48.132;11.608;2022-09-27T16:47:59;2.40;;;1.43;;
826;SDS011;395;48.132;11.608;2022-09-27T16:50:25;2.17;;;1.70;;
826;SDS011;395;48.132;11.608;2022-09-27T16:53:23;1.40;;;1.10;;
826;SDS011;395;48.132;11.608;2022-09-27T16:55:48;1.20;;;1.10;;
826;SDS011;395;48.132;11.608;2022-09-27T16:58:14;2.50;;;1.10;;
826;SDS011;395;48.132;11.608;2022-09-27T17:00:40;2.30;;;1.10;;
826;SDS011;395;48.132;11.608;2022-09-27T17:03:07;1.93;;;1.30;;
826;SDS011;395;48.132;11.608;2022-09-27T17:05:33;1.47;;;1.20;;
826;SDS011;395;48.132;11.608;2022-09-27T17:07:58;3.83;;;1.60;;
826;SDS011;395;48.132;11.608;2022-09-27T17:10:24;1.80;;;1.03;;
826;SDS011;395;48.132;11.608;2022-09-27T17:12:50;1.60;;;1.13;;
826;SDS011;395;48.132;11.608;2022-09-27T17:15:16;1.57;;;1.00;;
826;SDS011;395;48.132;11.608;2022-09-27T17:17:42;3.00;;;1.70;;
826;SDS011;395;48.132;11.608;2022-09-27T17:20:09;1.20;;;1.10;;
826;SDS011;395;48.132;11.608;2022-09-27T17:22:34;1.13;;;0.97;;
826;SDS011;395;48.132;11.608;2022-09-27T17:25:00;1.57;;;1.17;;
826;SDS011;395;48.132;11.608;2022-09-27T17:27:26;0.80;;;0.80;;
826;SDS011;395;48.132;11.608;2022-09-27T17:29:52;3.13;;;1.30;;
826;SDS011;395;48.132;11.608;2022-09-27T17:32:19;1.40;;;1.20;;
826;SDS011;395;48.132;11.608;2022-09-27T17:34:48;1.13;;;0.93;;
826;SDS011;395;48.132;11.608;2022-09-27T17:37:14;1.70;;;1.10;;
826;SDS011;395;48.132;11.608;2022-09-27T17:39:39;1.27;;;0.80;;
826;SDS011;395;48.132;11.608;2022-09-27T17:42:05;1.87;;;1.30;;
826;SDS011;395;48.132;11.608;2022-09-27T17:44:31;1.93;;;0.90;;
826;SDS011;395;48.132;11.608;2022-09-27T17:46:57;1.20;;;0.90;;
826;SDS011;395;48.132;11.608;2022-09-27T17:49:41;1.30;;;1.10;;
826;SDS011;395;48.132;11.608;2022-09-27T17:52:25;1.37;;;1.00;;
826;SDS011;395;48.132;11.608;2022-09-27T17:54:52;1.90;;;0.87;;
826;SDS011;395;48.132;11.608;2022-09-27T17:57:19;0.83;;;0.83;;
826;SDS011;395;48.132;11.608;2022-09-27T17:59:46;1.17;;;1.00;;
826;SDS011;395;48.132;11.608;2022-09-27T18:02:11;1.10;;;1.00;;
826;SDS011;395;48.132;11.608;2022-09-27T18:04:37;1.37;;;1.27;;
826;SDS011;395;48.132;11.608;2022-09-27T18:07:02;1.07;;;0.97;;
826;SDS011;395;48.132;11.608;2022-09-27T18:09:28;1.27;;;0.90;;
826;SDS011;395;48.132;11.608;2022-09-27T18:11:54;2.10;;;1.47;;
826;SDS011;395;48.132;11.608;2022-09-27T18:14:19;1.27;;;1.00;;
826;SDS011;395;48.132;11.608;2022-09-27T18:16:50;2.03;;;0.93;;
826;SDS011;395;48.132;11.608;2022-09-27T18:19:18;0.70;;;0.70;;
826;SDS011;395;48.132;11.608;2022-09-27T18:21:44;2.83;;;1.00;;
826;SDS011;395;48.132;11.608;2022-09-27T18:24:09;1.40;;;1.00;;
826;SDS011;395;48.132;11.608;2022-09-27T18:26:35;1.00;;;0.90;;
826;SDS011;395;48.132;11.608;2022-09-27T18:29:10;1.27;;;0.90;;
826;SDS011;395;48.132;11.608;2022-09-27T18:31:37;1.10;;;1.00;;
826;SDS011;395;48.132;11.608;2022-09-27T18:34:03;1.20;;;0.80;;
826;SDS011;395;48.132;11.608;2022-09-27T18:36:29;3.33;;;1.00;;
826;SDS011;395;48.132;11.608;2022-09-27T18:38:59;1.27;;;0.93;;
826;SDS011;395;48.132;11.608;2022-09-27T18:41:27;1.20;;;1.00;;
826;SDS011;395;48.132;11.608;2022-09-27T18:43:58;3.27;;;1.10;;
826;SDS011;395;48.132;11.608;2022-09-27T18:46:26;2.00;;;1.10;;
826;SDS011;395;48.132;11.608;2022-09-27T18:48:53;2.53;;;1.30;;
826;SDS011;395;48.132;11.608;2022-09-27T18:51:20;1.23;;;0.90;;
826;SDS011;395;48.132;11.608;2022-09-27T18:53:54;1.10;;;0.87;;
826;SDS011;395;48.132;11.608;2022-09-27T18:56:20;0.90;;;0.80;;